Radar

TAFs

KTOL 211740Z 2118/2218 18012G22KT P6SM SCT120 
  FM212300 19010KT P6SM BKN120 
  FM220900 19007KT P6SM VCSH OVC035 
  FM221100 18007KT P6SM -SHRA OVC010 
  FM221300 18007KT 4SM -SHRA OVC008
KJXN 212037Z 2121/2218 21015G27KT P6SM SCT100 BKN250 
  FM220200 18009KT P6SM BKN100 
  FM220700 21003KT 5SM BR OVC035 
  FM221100 12002KT 3SM BR OVC014 
  FM221300 07002KT 2SM -RA BR OVC009
KFDY 211740Z 2118/2218 20014G24KT P6SM SCT120 
  FM212200 19012KT P6SM BKN110 
  FM220800 19009KT 5SM -SHRA OVC045 
  FM221100 18009KT 3SM SHRA OVC015 
  FM221200 17008KT 3SM SHRA BR OVC008 
  FM221500 17009KT 1SM SHRA BR OVC005
KDTW 212041Z 2121/2224 20012KT P6SM BKN120 
  FM212300 18010KT P6SM SCT070 BKN090 
  FM220800 19006KT P6SM -SHRA SCT028 OVC045 
  FM221500 11005KT 6SM -RA BR BKN025 OVC045 
  FM222100 02005KT P6SM SCT045 BKN120
KCLE 212100Z 2121/2224 20012G22KT P6SM BKN120 
  FM212200 18012KT P6SM SCT150 
  FM220800 19012KT 6SM -SHRA OVC035 
  FM221200 18011KT 3SM SHRA BR OVC012 
  FM221400 17010KT 1SM SHRA BR OVC008 
  FM222000 VRB05KT 3/4SM SHRA BR OVC004
KFWA 211720Z 2118/2218 21014G24KT P6SM SCT200 
  FM220000 20010KT P6SM BKN120 
  FM220500 20008KT P6SM VCSH OVC070 
  FM220800 17008KT 5SM SHRA BR OVC025 
  FM221200 15006KT 3SM SHRA BR OVC008

METARs

KTDZ 212253Z AUTO 20011KT 10SM CLR 15/01 A2993 RMK AO2 PK WND 20027/2155 SLP136 T01500011
KTOL 212252Z 18009KT 10SM FEW110 16/01 A2990 RMK AO2 SLP129 T01560011 $
KDUH 212255Z AUTO 19010G15KT 10SM SCT120 15/M01 A2990 RMK AO2 T01451007
KJXN 212256Z 19016G23KT 10SM CLR 14/02 A2985 RMK AO2 PK WND 20029/2204 SLP112 T01390022
KFDY 212253Z AUTO 19008KT 10SM CLR 13/01 A2993 RMK AO2 SLP136 T01280011
KDTW 212253Z 20010KT 10SM SCT110 BKN230 13/02 A2988 RMK AO2 SLP120 T01330017
KCLE 212251Z 19011G22KT 10SM SCT120 BKN250 14/M03 A2995 RMK AO2 PK WND 20027/2155 SLP161 T01391033
KFWA 212254Z 19010KT 10SM BKN130 OVC240 13/03 A2991 RMK AO2 SLP129 T01330028

Visible Satellite

Satellite

TFRs

TFRs